Latest Weather Observations for Esperance Airport

IDW60801

Issued at 9:03 am WST Tuesday 22 September 2020 (issued every 10 minutes, with the page automatically refreshed every 10 minutes)

About weather observations | Map of weather stations | Latest weather observations for WA | Other Formats
Station Details ID: 009542 Name: ESPERANCE AERO Lat: -33.68 Lon: 121.83 Height: 142.0 m
Data from the previous 72 hours. | See also: Recent months at Esperance Airport
Date/Time
WST
Temp
°C
App
Temp
°C
Dew
Point
°C
Rel
Hum
%
Delta-T
°C
Wind Press
QNH
hPa
Press
MSL
hPa
Rain since
9am
mm
Dir  Spd
km/h
Gust
km/h
Spd
kts
Gust
kts
22/09:00am 14.3 9.5 11.8 85 1.3 W 28 35 15 19 1021.8 1021.8 2.6
22/08:30am 12.3 8.2 11.5 95 0.4 W 24 30 13 16 1021.7 1021.7 2.6
22/08:00am 12.2 7.7 11.3 94 0.5 W 26 35 14 19 1021.4 1021.4 2.6
22/07:30am 11.4 7.5 10.8 96 0.3 W 22 33 12 18 1020.6 1020.6 2.6
22/07:00am 10.7 6.7 10.5 99 0.1 W 22 28 12 15 1020.2 1020.2 2.6
22/06:30am 10.1 6.0 10.1 100 0.0 W 22 28 12 15 1019.8 1019.7 2.6
22/06:00am 9.4 5.1 9.4 100 0.0 WNW 22 26 12 14 1019.3 1019.2 2.6
22/05:30am 9.1 4.3 9.0 99 0.0 WNW 24 32 13 17 1018.8 1018.7 2.6
22/05:00am 9.1 4.7 9.0 99 0.0 WNW 22 28 12 15 1018.7 1018.6 2.6
22/04:30am 9.0 4.2 8.9 99 0.0 WNW 24 30 13 16 1018.4 1018.3 2.6
22/04:00am 8.9 4.0 8.5 97 0.2 WNW 24 32 13 17 1018.2 1018.1 2.6
22/03:30am 8.8 3.8 7.9 94 0.4 WNW 24 30 13 16 1018.1 1018.0 2.6
22/03:00am 9.5 4.6 8.3 92 0.6 WNW 24 32 13 17 1017.9 1017.8 2.6
22/02:30am 9.2 5.1 8.7 97 0.2 NW 20 32 11 17 1018.0 1017.9 2.6
22/02:00am 8.4 4.4 8.3 99 0.0 NW 19 24 10 13 1018.0 1017.9 2.6
22/01:30am 8.3 4.7 8.2 99 0.0 NW 17 22 9 12 1018.3 1018.2 2.6
22/01:00am 8.2 4.9 8.1 99 0.0 NW 15 20 8 11 1018.4 1018.3 2.6
22/12:30am 8.3 5.4 8.2 99 0.0 NW 13 17 7 9 1018.5 1018.4 2.6
22/12:00am 8.4 5.9 8.3 99 0.0 NW 11 15 6 8 1018.5 1018.4 2.6
 
Date/Time
WST
Temp
°C
App
Temp
°C
Dew
Point
°C
Rel
Hum
%
Delta-T
°C
Wind Press
QNH
hPa
Press
MSL
hPa
Rain since
9am
mm
Dir  Spd
km/h
Gust
km/h
Spd
kts
Gust
kts
21/11:30pm 8.6 6.6 8.5 99 0.0 NW 9 13 5 7 1018.7 1018.6 2.6
21/11:00pm 8.8 6.0 8.5 98 0.1 WNW 13 15 7 8 1019.0 1018.9 2.6
21/10:30pm 9.2 6.5 8.9 98 0.1 WNW 13 15 7 8 1019.2 1019.1 2.6
21/10:00pm 9.6 6.9 9.1 97 0.2 WNW 13 17 7 9 1019.5 1019.4 2.6
21/09:30pm 9.5 7.2 9.0 97 0.2 WNW 11 15 6 8 1019.8 1019.7 2.6
21/09:00pm 8.9 6.4 8.1 95 0.4 WNW 11 13 6 7 1019.8 1019.7 2.6
21/08:30pm 9.0 6.5 8.1 94 0.4 WNW 11 13 6 7 1019.8 1019.7 2.6
21/08:00pm 9.0 7.2 7.9 93 0.5 W 7 9 4 5 1019.9 1019.8 2.6
21/07:30pm 9.4 7.3 8.3 93 0.5 W 9 11 5 6 1019.8 1019.7 2.6
21/07:00pm 9.5 7.0 8.3 92 0.6 W 11 13 6 7 1019.5 1019.4 2.6
21/06:30pm 10.4 8.1 9.0 91 0.7 WSW 11 15 6 8 1019.3 1019.2 2.6
21/06:00pm 11.7 8.7 9.4 86 1.2 SW 15 20 8 11 1019.2 1019.1 2.6
21/05:30pm 12.2 8.3 9.4 83 1.4 SW 20 30 11 16 1018.9 1018.8 2.6
21/05:00pm 12.4 7.7 9.4 82 1.5 SW 24 32 13 17 1018.8 1018.7 2.6
21/04:30pm 13.1 7.6 9.2 77 2.0 SW 28 39 15 21 1018.5 1018.4 2.6
21/04:00pm 13.0 6.7 9.1 77 2.0 SW 32 41 17 22 1018.3 1018.2 2.6
21/03:30pm 12.7 8.2 10.2 85 1.3 WSW 24 30 13 16 1018.1 1018.0 2.6
21/03:00pm 13.1 6.7 8.6 74 2.3 SW 32 44 17 24 1017.9 1017.8 2.6
21/02:30pm 13.9 6.8 7.9 67 3.0 SW 35 46 19 25 1017.5 1017.4 2.4
21/02:00pm 14.8 7.7 8.1 64 3.4 SW 35 44 19 24 1017.3 1017.2 2.4
21/01:30pm 14.1 7.6 8.9 71 2.7 SW 33 48 18 26 1017.2 1017.1 2.4
21/01:00pm 14.9 7.4 9.3 69 2.9 SW 39 54 21 29 1017.0 1016.9 2.4
21/12:30pm 14.1 7.2 8.7 70 2.7 SW 35 54 19 29 1017.0 1016.9 2.4
21/12:00pm 14.0 6.7 8.8 71 2.6 SW 37 46 20 25 1017.1 1017.0 2.4
21/11:35am 13.7 7.3 8.7 72 2.5 SW 32 50 17 27 1017.1 1017.0 2.4
21/11:30am 13.8 6.9 9.0 73 2.4 SW 35 50 19 27 1017.1 1017.0 2.4
21/11:06am 13.2 6.8 9.3 77 2.0 SW 33 52 18 28 1017.1 1017.0 2.4
21/11:00am 13.1 6.2 9.0 76 2.1 SW 35 52 19 28 1017.0 1016.9 2.4
21/10:59am 13.2 6.8 9.3 77 2.0 SW 33 52 18 28 1017.0 1016.9 2.4
21/10:30am 12.2 6.5 11.1 93 0.6 SW 32 43 17 23 1017.1 1017.0 2.4
21/10:01am 12.4 9.0 12.4 100 0.0 SW 22 32 12 17 1016.9 1016.8 2.4
21/10:00am 12.6 8.9 12.6 100 0.0 SW 24 35 13 19 1016.9 1016.8 2.4
21/09:40am 11.7 7.7 11.7 100 0.0 WSW 24 30 13 16 1016.9 1016.8 1.6
21/09:34am 12.2 8.3 12.2 100 0.0 WSW 24 32 13 17 1016.9 1016.8 1.4
21/09:32am 11.9 7.9 11.9 100 0.0 WSW 24 32 13 17 1016.8 1016.7 1.4
21/09:30am 11.7 7.7 11.7 100 0.0 WSW 24 32 13 17 1016.8 1016.7 1.4
21/09:09am 10.9 5.9 10.9 100 0.0 W 28 50 15 27 1016.9 1016.8 1.0
21/09:07am 11.3 6.8 11.3 100 0.0 W 26 37 14 20 1016.8 1016.7 0.4
21/09:00am 12.0 8.4 12.0 100 0.0 WSW 22 30 12 16 1016.3 1016.3 20.4
21/08:51am 11.8 8.2 11.8 100 0.0 WSW 22 32 12 17 1016.5 1016.4 20.4
21/08:30am 10.5 5.8 10.5 100 0.0 WSW 26 35 14 19 1016.6 1016.5 20.4
21/08:00am 10.1 4.1 10.1 100 0.0 W 32 39 17 21 1015.9 1015.9 19.0
21/07:30am 10.0 4.4 10.0 100 0.0 W 30 50 16 27 1015.4 1015.4 17.2
21/07:27am 10.0 4.4 10.0 100 0.0 W 30 50 16 27 1015.2 1015.2 17.2
21/07:09am 9.8 4.5 9.8 100 0.0 W 28 39 15 21 1015.1 1015.1 16.4
21/07:00am 9.9 5.0 9.9 100 0.0 W 26 35 14 19 1014.9 1014.9 16.0
21/06:38am 9.7 4.4 9.7 100 0.0 W 28 37 15 20 1014.7 1014.7 16.0
21/06:30am 9.8 5.2 9.8 100 0.0 W 24 35 13 19 1014.6 1014.6 15.8
21/06:11am 9.7 4.7 9.7 100 0.0 W 26 35 14 19 1014.3 1014.3 15.4
21/06:00am 9.7 4.4 9.7 100 0.0 W 28 35 15 19 1014.1 1014.1 15.2
21/05:30am 9.6 4.6 9.6 100 0.0 W 26 33 14 18 1013.6 1013.5 14.8
21/05:19am 9.6 4.2 9.6 100 0.0 W 28 33 15 18 1013.6 1013.5 14.8
21/05:03am 9.8 4.5 9.8 100 0.0 W 28 37 15 20 1013.6 1013.5 14.8
21/05:00am 9.8 4.5 9.8 100 0.0 W 28 37 15 20 1013.4 1013.3 14.6
21/04:54am 9.8 4.5 9.8 100 0.0 W 28 37 15 20 1013.3 1013.2 14.4
21/04:30am 9.9 4.6 9.9 100 0.0 W 28 39 15 21 1013.1 1013.0 14.2
21/04:05am 10.0 5.5 10.0 100 0.0 W 24 35 13 19 1013.1 1013.0 12.8
21/04:00am 10.0 5.9 10.0 100 0.0 W 22 30 12 16 1012.9 1012.8 12.8
21/03:47am 10.0 5.5 10.0 100 0.0 W 24 32 13 17 1012.7 1012.6 12.6
21/03:32am 9.9 5.0 9.9 100 0.0 W 26 32 14 17 1012.8 1012.7 12.6
21/03:30am 9.9 5.4 9.9 100 0.0 W 24 32 13 17 1012.8 1012.7 12.6
21/03:27am 9.8 5.2 9.8 100 0.0 W 24 32 13 17 1012.8 1012.7 12.4
21/03:25am 9.8 5.2 9.8 100 0.0 W 24 32 13 17 1012.6 1012.5 12.0
21/03:00am 9.8 5.2 9.8 100 0.0 W 24 33 13 18 1012.5 1012.4 11.2
21/02:42am 9.9 5.0 9.9 100 0.0 W 26 33 14 18 1012.5 1012.4 11.2
21/02:30am 9.9 5.7 9.9 100 0.0 W 22 30 12 16 1012.4 1012.3 11.2
21/02:25am 9.9 5.7 9.9 100 0.0 W 22 32 12 17 1012.4 1012.3 11.2
21/02:22am 10.0 5.5 10.0 100 0.0 W 24 33 13 18 1012.4 1012.3 10.8
21/02:08am 10.0 5.9 10.0 100 0.0 W 22 30 12 16 1012.4 1012.3 10.6
21/02:00am 10.0 5.5 10.0 100 0.0 W 24 32 13 17 1012.3 1012.2 10.0
21/01:46am 9.9 4.6 9.9 100 0.0 W 28 37 15 20 1012.3 1012.2 10.0
21/01:30am 9.9 5.4 9.9 100 0.0 W 24 41 13 22 1012.2 1012.1 9.8
21/01:26am 9.9 5.7 9.9 100 0.0 W 22 33 12 18 1012.1 1012.0 9.6
21/01:00am 10.0 5.1 10.0 100 0.0 W 26 32 14 17 1012.1 1012.0 8.2
21/12:52am 10.0 5.1 10.0 100 0.0 W 26 32 14 17 1012.1 1012.0 8.2
21/12:30am 10.0 5.1 10.0 100 0.0 W 26 39 14 21 1012.0 1011.9 8.0
21/12:00am 9.9 4.6 9.9 100 0.0 W 28 37 15 20 1011.9 1011.8 8.0
 
Date/Time
WST
Temp
°C
App
Temp
°C
Dew
Point
°C
Rel
Hum
%
Delta-T
°C
Wind Press
QNH
hPa
Press
MSL
hPa
Rain since
9am
mm
Dir  Spd
km/h
Gust
km/h
Spd
kts
Gust
kts
20/11:30pm 9.9 4.2 9.9 100 0.0 W 30 44 16 24 1011.7 1011.6 8.0
20/11:11pm 10.0 3.8 10.0 100 0.0 W 33 44 18 24 1011.4 1011.3 8.0
20/11:00pm 10.0 3.8 10.0 100 0.0 W 33 43 18 23 1011.4 1011.3 8.0
20/10:58pm 10.0 3.8 10.0 100 0.0 W 33 48 18 26 1011.5 1011.4 7.6
20/10:54pm 10.0 3.4 10.0 100 0.0 W 35 48 19 26 1011.4 1011.3 7.6
20/10:30pm 10.0 3.8 10.0 100 0.0 W 33 44 18 24 1011.1 1011.0 7.2
20/10:00pm 10.0 3.0 10.0 100 0.0 W 37 48 20 26 1011.0 1010.9 7.2
20/09:40pm 10.1 3.9 10.1 100 0.0 W 33 46 18 25 1011.0 1010.9 7.2
20/09:30pm 10.0 3.8 10.0 100 0.0 W 33 41 18 22 1011.0 1010.9 7.2
20/09:00pm 10.1 3.1 10.1 100 0.0 W 37 50 20 27 1011.1 1011.0 4.8
20/08:40pm 10.0 2.6 10.0 100 0.0 W 39 52 21 28 1010.6 1010.5 4.0
20/08:36pm 10.1 2.8 10.1 100 0.0 W 39 52 21 28 1010.5 1010.4 3.8
20/08:31pm 10.0 2.3 10.0 100 0.0 W 41 59 22 32 1010.1 1010.0 3.8
20/08:30pm 10.0 1.9 10.0 100 0.0 W 43 59 23 32 1010.1 1010.0 3.8
20/08:10pm 10.2 2.5 10.2 100 0.0 W 41 52 22 28 1010.1 1010.0 3.6
20/08:00pm 10.2 2.9 10.2 100 0.0 W 39 56 21 30 1010.0 1009.9 3.6
20/07:46pm 10.2 1.6 10.2 100 0.0 W 46 63 25 34 1009.6 1009.5 2.6
20/07:43pm 10.3 1.6 10.1 99 0.1 W 46 65 25 35 1009.5 1009.4 2.6
20/07:42pm 10.3 1.3 10.1 99 0.1 W 48 65 26 35 1009.4 1009.3 2.2
20/07:33pm 10.3 1.3 10.1 99 0.1 W 48 63 26 34 1009.2 1009.1 2.2
20/07:30pm 10.4 1.4 10.2 99 0.1 W 48 65 26 35 1009.0 1009.0 2.2
20/07:00pm 10.3 1.2 9.8 97 0.3 W 48 67 26 36 1008.6 1008.6 1.0
20/06:52pm 10.4 -0.3 9.5 94 0.5 W 56 78 30 42 1008.3 1008.3 0.8
20/06:40pm 10.8 1.5 9.2 90 0.8 W 48 67 26 36 1007.8 1007.7 0.4
20/06:30pm 10.8 1.5 9.1 89 0.9 W 48 65 26 35 1007.7 1007.6 0.4
20/06:16pm 11.0 2.4 8.8 86 1.1 W 44 63 24 34 1007.4 1007.3 0.2
20/06:00pm 10.8 2.7 8.7 87 1.0 W 41 57 22 31 1007.2 1007.1 0.2
20/05:37pm 11.2 1.6 8.1 81 1.5 W 48 69 26 37 1006.8 1006.7 0.0
20/05:30pm 11.5 1.5 7.8 78 1.8 W 50 65 27 35 1006.6 1006.5 0.0
20/05:00pm 13.3 2.1 5.9 61 3.5 W 54 76 29 41 1006.0 1005.9 0.0
20/04:30pm 13.9 2.1 5.8 58 3.9 W 57 82 31 44 1005.4 1005.3 0.0
20/04:00pm 13.7 1.2 5.8 59 3.8 W 61 83 33 45 1005.1 1005.0 0.0
20/03:52pm 13.6 1.9 6.0 60 3.6 W 57 83 31 45 1004.9 1004.8 0.0
20/03:51pm 13.4 1.7 6.0 61 3.5 W 57 83 31 45 1004.8 1004.7 0.0
20/03:33pm 13.8 4.0 5.4 57 4.0 W 46 67 25 36 1004.7 1004.6 0.0
20/03:30pm 13.6 3.9 5.7 59 3.8 W 46 61 25 33 1004.8 1004.7 0.0
20/03:00pm 13.4 2.1 5.3 58 3.8 W 54 76 29 41 1004.6 1004.5 0.0
20/02:30pm 14.4 1.1 4.1 50 4.8 W 63 83 34 45 1003.9 1003.8 0.0
20/02:00pm 14.3 3.5 4.0 50 4.8 W 50 69 27 37 1004.0 1003.9 0.0
20/01:34pm 14.2 2.2 3.9 50 4.7 W 56 74 30 40 1004.2 1004.1 0.0
20/01:30pm 14.4 2.9 4.4 51 4.7 W 54 70 29 38 1004.3 1004.2 0.0
20/01:03pm 15.1 4.5 5.3 52 4.7 WNW 50 69 27 37 1004.4 1004.3 0.0
20/01:00pm 14.4 2.9 4.4 51 4.7 WNW 54 69 29 37 1004.3 1004.2 0.0
20/12:30pm 14.1 2.9 4.1 51 4.6 W 52 72 28 39 1004.5 1004.4 0.0
20/12:00pm 14.4 3.8 5.2 54 4.4 W 50 69 27 37 1004.7 1004.6 0.0
20/11:30am 13.8 2.0 4.7 54 4.2 W 56 74 30 40 1004.9 1004.8 0.0
20/11:00am 13.3 3.2 5.5 59 3.7 W 48 69 26 37 1005.2 1005.1 0.0
20/10:30am 13.2 1.9 5.4 59 3.7 W 54 72 29 39 1005.1 1005.0 0.0
20/10:02am 12.1 1.2 5.3 63 3.2 W 52 70 28 38 1005.5 1005.4 0.0
20/10:00am 11.5 0.1 4.9 64 3.0 W 54 70 29 38 1005.5 1005.4 0.0
20/09:30am 11.2 0.5 4.7 64 3.0 W 50 78 27 42 1005.7 1005.6 0.0
20/09:00am 11.0 1.1 4.9 66 2.8 WNW 46 65 25 35 1005.4 1005.3 2.6
20/08:30am 9.7 0.2 4.9 72 2.2 W 44 63 24 34 1005.7 1005.6 2.6
20/08:06am 9.3 -1.1 4.3 71 2.2 WNW 48 67 26 36 1005.7 1005.6 2.6
20/08:00am 9.5 -0.4 4.7 72 2.2 WNW 46 63 25 34 1005.5 1005.4 2.6
20/07:46am 8.7 -0.7 4.3 74 1.9 WNW 43 65 23 35 1005.4 1005.3 2.6
20/07:30am 8.4 -1.2 4.2 75 1.8 WNW 44 59 24 32 1005.4 1005.3 2.6
20/07:00am 7.3 -1.4 4.1 80 1.4 WNW 39 52 21 28 1005.3 1005.2 2.6
20/06:30am 6.5 -1.5 3.8 83 1.2 WNW 35 52 19 28 1005.4 1005.3 2.6
20/06:00am 6.0 -2.1 3.5 84 1.1 WNW 35 52 19 28 1005.2 1005.1 2.6
20/05:30am 6.1 -1.9 3.6 84 1.1 WNW 35 56 19 30 1005.2 1005.1 2.6
20/05:23am 6.0 -1.6 3.8 86 0.9 WNW 33 56 18 30 1005.1 1005.0 2.6
20/05:00am 6.0 -2.4 3.8 86 0.9 WNW 37 48 20 26 1005.2 1005.1 2.6
20/04:30am 6.1 -1.9 3.9 86 0.9 WNW 35 50 19 27 1005.0 1004.9 2.6
20/04:00am 6.3 -2.0 4.1 86 1.0 WNW 37 50 20 27 1004.9 1004.8 2.6
20/03:50am 6.3 -1.6 4.3 87 0.9 WNW 35 54 19 29 1005.0 1004.9 2.6
20/03:30am 6.5 -1.4 4.5 87 0.9 WNW 35 46 19 25 1005.0 1004.9 2.6
20/03:00am 6.7 -1.1 4.7 87 0.9 WNW 35 48 19 26 1004.9 1004.8 2.6
20/02:30am 6.8 -0.4 4.8 87 0.9 WNW 32 43 17 23 1004.8 1004.7 2.6
20/02:00am 7.0 -0.2 4.8 86 1.0 WNW 32 43 17 23 1004.8 1004.7 2.6
20/01:30am 7.2 0.0 5.0 86 1.0 WNW 32 43 17 23 1005.1 1005.0 2.6
20/01:00am 7.4 1.0 5.2 86 1.0 WNW 28 37 15 20 1005.1 1005.0 2.6
20/12:30am 7.7 1.7 5.2 84 1.1 WNW 26 35 14 19 1005.3 1005.2 2.6
20/12:00am 8.3 1.6 5.8 84 1.1 WNW 30 43 16 23 1005.4 1005.3 2.6
 
Date/Time
WST
Temp
°C
App
Temp
°C
Dew
Point
°C
Rel
Hum
%
Delta-T
°C
Wind Press
QNH
hPa
Press
MSL
hPa
Rain since
9am
mm
Dir  Spd
km/h
Gust
km/h
Spd
kts
Gust
kts
19/11:30pm 8.4 3.0 6.2 86 1.0 WNW 24 30 13 16 1005.4 1005.3 2.6
19/11:00pm 8.6 3.7 7.1 90 0.7 WNW 22 28 12 15 1005.6 1005.5 2.6
19/10:30pm 8.9 4.5 7.4 90 0.7 WNW 20 28 11 15 1005.9 1005.8 2.6
19/10:00pm 9.5 4.7 7.4 87 1.0 WNW 22 28 12 15 1005.9 1005.8 2.6
19/09:30pm 10.2 4.7 7.4 83 1.3 W 26 35 14 19 1005.8 1005.7 2.6
19/09:00pm 11.0 4.2 7.9 81 1.5 W 33 46 18 25 1005.8 1005.7 2.6
19/08:30pm 11.4 6.3 9.3 87 1.1 W 26 37 14 20 1005.7 1005.6 2.6
19/08:00pm 11.5 8.1 10.7 95 0.4 WSW 19 26 10 14 1005.5 1005.4 2.6
19/07:30pm 11.7 7.9 11.1 96 0.3 WSW 22 33 12 18 1005.4 1005.3 2.6
19/07:00pm 12.2 6.5 11.3 94 0.5 SW 32 44 17 24 1005.0 1004.9 2.4
19/06:51pm 12.9 9.2 11.6 92 0.7 SW 22 50 12 27 1004.9 1004.8 2.4
19/06:30pm 12.7 11.2 11.9 95 0.4 WSW 11 13 6 7 1004.1 1004.0 2.4
19/06:00pm 13.2 11.8 12.1 93 0.6 WSW 11 13 6 7 1003.7 1003.6 2.4
19/05:30pm 14.1 13.2 12.7 91 0.8 SW 9 13 5 7 1003.4 1003.3 2.4
19/05:00pm 14.9 12.9 12.6 86 1.3 SW 15 19 8 10 1003.1 1003.0 2.4
19/04:30pm 15.5 12.9 13.3 87 1.2 SW 19 26 10 14 1002.8 1002.7 2.4
19/04:00pm 15.8 12.4 13.6 87 1.2 SW 24 33 13 18 1002.6 1002.5 2.4
19/03:51pm 16.1 12.8 13.9 87 1.3 SW 24 37 13 20 1002.4 1002.3 2.4
19/03:30pm 15.2 12.1 14.6 96 0.3 SW 24 30 13 16 1002.4 1002.3 2.4
19/03:22pm 15.0 12.0 14.8 99 0.1 SW 24 35 13 19 1002.4 1002.3 2.4
19/03:13pm 15.2 12.3 15.2 100 0.0 SW 24 30 13 16 1002.2 1002.1 2.4
19/03:00pm 14.8 11.2 14.3 97 0.3 SW 26 37 14 20 1002.5 1002.4 2.4
19/02:59pm 14.8 11.2 14.2 96 0.3 SW 26 37 14 20 1002.5 1002.4 2.4
19/02:39pm 16.3 12.3 14.0 86 1.3 WSW 28 46 15 25 1001.8 1001.6 2.2
19/02:30pm 17.9 14.3 15.3 85 1.5 W 28 37 15 20 1001.8 1001.6 2.2
19/02:00pm 16.4 13.8 15.8 96 0.4 WNW 24 32 13 17 1001.8 1001.6 2.2
19/01:34pm 14.4 10.3 13.9 97 0.3 W 28 39 15 21 1002.1 1002.0 2.2
19/01:30pm 14.3 10.2 13.8 97 0.3 W 28 37 15 20 1002.0 1001.8 2.2
19/01:13pm 15.3 11.1 13.5 89 1.0 SW 28 61 15 33 1002.2 1002.1 1.0
19/01:00pm 17.4 12.5 12.7 74 2.6 SW 30 39 16 21 1001.6 1001.5 0.0
19/12:30pm 20.6 14.2 9.2 48 6.1 WSW 33 44 18 24 1001.2 1001.1 0.0
19/12:00pm 23.3 17.2 9.7 42 7.5 WNW 32 44 17 24 1001.6 1001.5 0.0
19/11:30am 22.8 16.3 8.9 41 7.5 W 33 43 18 23 1002.0 1001.8 0.0
19/11:13am 21.7 16.1 8.9 44 6.8 W 28 46 15 25 1002.1 1002.0 0.0
19/11:00am 21.9 16.0 10.4 48 6.4 W 32 43 17 23 1002.3 1002.2 0.0
19/10:30am 20.7 14.0 9.6 49 6.0 WNW 35 44 19 24 1002.5 1002.4 0.0
19/10:00am 20.2 15.4 11.7 58 4.8 NW 28 39 15 21 1003.0 1002.9 0.0
19/09:30am 19.2 15.0 13.4 69 3.3 WNW 28 37 15 20 1003.5 1003.4 0.0

Other formats

Comma delimited format used in spreadsheet applications
http://www.bom.gov.au/fwo/IDW60801/IDW60801.95638.axf

JavaScript Object Notation format (JSON) in row-major order
http://www.bom.gov.au/fwo/IDW60801/IDW60801.95638.json

Data quality

Most of these data are generated automatically and are frequently updated. Quality checks on data are not normally performed. It is possible for incorrect values to appear. Refer to information at About Latest Weather Observations and please check the disclaimer before using these data.